createdAt,value
2022-11-10T00:00:34.568Z,3.20
2022-11-10T00:03:04.911Z,3.60
2022-11-10T00:05:39.168Z,3.63
2022-11-10T00:08:10.385Z,3.63
2022-11-10T00:10:57.065Z,3.50
2022-11-10T00:13:27.843Z,3.37
2022-11-10T00:16:09.781Z,3.50
2022-11-10T00:18:39.691Z,3.57
2022-11-10T00:21:13.072Z,4.80
2022-11-10T00:23:43.145Z,4.00
2022-11-10T00:26:17.473Z,4.70
2022-11-10T00:28:47.870Z,4.40
2022-11-10T00:31:17.324Z,4.37
2022-11-10T00:33:47.270Z,4.60
2022-11-10T00:36:19.256Z,4.50
2022-11-10T00:38:48.628Z,4.23
2022-11-10T00:41:17.996Z,4.30
2022-11-10T00:43:47.507Z,5.40
2022-11-10T00:46:17.631Z,4.60
2022-11-10T00:48:47.103Z,5.20
2022-11-10T00:51:23.264Z,6.03
2022-11-10T00:53:53.105Z,5.30
2022-11-10T00:56:23.067Z,5.87
2022-11-10T00:58:52.781Z,4.80
2022-11-10T01:01:24.287Z,5.93
2022-11-10T01:03:53.954Z,5.90
2022-11-10T01:06:25.962Z,4.87
2022-11-10T01:08:55.447Z,5.50
2022-11-10T01:11:27.385Z,5.77
2022-11-10T01:13:58.027Z,5.00
2022-11-10T01:16:29.851Z,4.90
2022-11-10T01:19:00.515Z,5.50
2022-11-10T01:21:32.864Z,5.70
2022-11-10T01:24:02.606Z,5.27
2022-11-10T01:26:34.768Z,5.60
2022-11-10T01:29:04.794Z,5.03
2022-11-10T01:31:34.437Z,4.80
2022-11-10T01:34:03.830Z,5.53
2022-11-10T01:36:35.838Z,5.27
2022-11-10T01:39:05.269Z,4.87
2022-11-10T01:41:34.648Z,4.57
2022-11-10T01:44:18.754Z,4.73
2022-11-10T01:46:48.165Z,5.10
2022-11-10T01:49:18.900Z,4.10
2022-11-10T01:51:52.654Z,3.87
2022-11-10T01:54:25.197Z,4.90
2022-11-10T01:56:57.817Z,5.00
2022-11-10T01:59:29.901Z,4.90
2022-11-10T02:02:04.304Z,4.10
2022-11-10T02:04:34.168Z,3.80
2022-11-10T02:07:06.362Z,5.27
2022-11-10T02:09:35.828Z,4.73
2022-11-10T02:12:05.469Z,4.70
2022-11-10T02:14:34.955Z,3.90
2022-11-10T02:17:04.434Z,4.17
2022-11-10T02:19:33.820Z,4.23
2022-11-10T02:22:05.832Z,4.80
2022-11-10T02:24:36.110Z,4.40
2022-11-10T02:27:05.567Z,4.80
2022-11-10T02:29:35.008Z,4.07
2022-11-10T02:32:04.521Z,4.20
2022-11-10T02:34:33.937Z,4.00
2022-11-10T02:37:05.888Z,4.17
2022-11-10T02:39:35.305Z,4.00
2022-11-10T02:42:04.736Z,4.97
2022-11-10T02:44:34.108Z,4.73
2022-11-10T02:47:03.555Z,4.07
2022-11-10T02:49:32.917Z,3.90
2022-11-10T02:52:02.288Z,4.40
2022-11-10T02:54:34.269Z,3.73
2022-11-10T02:57:03.975Z,4.73
2022-11-10T02:59:33.405Z,4.93
2022-11-10T03:02:02.792Z,4.20
2022-11-10T03:04:32.499Z,3.80
2022-11-10T03:07:01.930Z,4.87
2022-11-10T03:09:33.947Z,4.83
2022-11-10T03:12:03.392Z,5.37
2022-11-10T03:14:33.051Z,4.67
2022-11-10T03:17:02.469Z,5.47
2022-11-10T03:19:31.889Z,5.03
2022-11-10T03:22:01.261Z,5.40
2022-11-10T03:24:30.782Z,5.83
2022-11-10T03:27:02.982Z,6.20
2022-11-10T03:29:32.432Z,5.70
2022-11-10T03:32:01.805Z,6.90
2022-11-10T03:34:32.035Z,5.70
2022-11-10T03:37:01.488Z,6.83
2022-11-10T03:39:31.005Z,6.70
2022-11-10T03:42:02.995Z,6.77
2022-11-10T03:44:32.441Z,6.00
2022-11-10T03:47:03.192Z,6.30
2022-11-10T03:49:33.117Z,7.70
2022-11-10T03:52:02.511Z,7.57
2022-11-10T03:54:31.920Z,7.70
2022-11-10T03:57:04.400Z,8.07
2022-11-10T03:59:34.383Z,7.80
2022-11-10T04:02:03.962Z,7.80
2022-11-10T04:04:46.037Z,8.80
2022-11-10T04:07:28.464Z,7.20
2022-11-10T04:09:57.861Z,8.77
2022-11-10T04:12:42.341Z,7.50
2022-11-10T04:15:25.275Z,7.20
2022-11-10T04:17:54.636Z,8.77
2022-11-10T04:20:24.021Z,9.97
2022-11-10T04:23:05.883Z,10.37
2022-11-10T04:25:55.972Z,10.73
2022-11-10T04:28:27.948Z,12.93
2022-11-10T04:30:57.338Z,11.03
2022-11-10T04:33:26.704Z,11.10
2022-11-10T04:35:56.093Z,12.70
2022-11-10T04:38:25.591Z,13.30
2022-11-10T04:40:55.373Z,9.90
2022-11-10T04:43:25.287Z,12.73
2022-11-10T04:45:57.886Z,12.30
2022-11-10T04:48:27.588Z,12.80
2022-11-10T04:50:57.450Z,11.67
2022-11-10T04:53:27.244Z,12.60
2022-11-10T04:55:56.810Z,12.40
2022-11-10T04:58:26.201Z,13.77
2022-11-10T05:00:58.313Z,12.90
2022-11-10T05:03:27.779Z,11.77
2022-11-10T05:05:57.179Z,13.73
2022-11-10T05:08:26.571Z,13.23
2022-11-10T05:10:55.996Z,13.50
2022-11-10T05:13:25.507Z,13.80
2022-11-10T05:15:55.024Z,13.97
2022-11-10T05:18:27.269Z,14.30
2022-11-10T05:20:56.677Z,15.37
2022-11-10T05:23:41.977Z,14.67
2022-11-10T05:26:12.715Z,16.30
2022-11-10T05:28:42.966Z,15.20
2022-11-10T05:31:12.631Z,17.17
2022-11-10T05:33:44.593Z,18.20
2022-11-10T05:36:14.017Z,19.47
2022-11-10T05:38:43.966Z,17.97
2022-11-10T05:41:14.032Z,18.80
2022-11-10T05:43:43.468Z,19.83
2022-11-10T05:46:12.858Z,18.40
2022-11-10T05:48:44.861Z,20.83
2022-11-10T05:51:14.238Z,17.43
2022-11-10T05:53:43.636Z,15.47
2022-11-10T05:56:13.051Z,18.37
2022-11-10T05:58:42.425Z,18.13
2022-11-10T06:01:11.796Z,16.23
2022-11-10T06:03:43.990Z,18.10
2022-11-10T06:06:13.488Z,17.83
2022-11-10T06:08:42.979Z,17.40
2022-11-10T06:11:12.808Z,17.73
2022-11-10T06:13:42.193Z,18.00
2022-11-10T06:16:11.576Z,15.03
2022-11-10T06:18:41.008Z,14.00
2022-11-10T06:21:13.095Z,15.30
2022-11-10T06:23:42.862Z,15.27
2022-11-10T06:26:12.782Z,15.53
2022-11-10T06:28:42.210Z,16.37
2022-11-10T06:31:11.743Z,14.20
2022-11-10T06:33:42.764Z,15.40
2022-11-10T06:36:14.868Z,14.40
2022-11-10T06:38:44.334Z,15.13
2022-11-10T06:41:13.871Z,14.83
2022-11-10T06:43:43.452Z,15.53
2022-11-10T06:46:13.001Z,14.50
2022-11-10T06:48:42.517Z,12.40
2022-11-10T06:51:14.537Z,14.43
2022-11-10T06:53:44.731Z,13.97
2022-11-10T06:56:14.141Z,15.77
2022-11-10T06:58:43.648Z,13.80
2022-11-10T07:01:13.210Z,18.50
2022-11-10T07:04:05.159Z,14.43
2022-11-10T07:06:34.784Z,21.87
2022-11-10T07:09:04.282Z,26.57
2022-11-10T07:11:33.656Z,15.10
2022-11-10T07:14:03.118Z,18.67
2022-11-10T07:16:32.493Z,11.73
2022-11-10T07:19:01.865Z,13.27
2022-11-10T07:21:33.907Z,12.47
2022-11-10T07:24:03.286Z,18.70
2022-11-10T07:26:32.894Z,13.93
2022-11-10T07:29:02.368Z,14.70
2022-11-10T07:31:31.767Z,12.90
2022-11-10T07:34:01.148Z,13.67
2022-11-10T07:36:30.629Z,12.40
2022-11-10T07:39:02.731Z,16.37
2022-11-10T07:41:32.145Z,10.80
2022-11-10T07:44:01.573Z,18.00
2022-11-10T07:46:31.152Z,14.10
2022-11-10T07:49:00.622Z,15.23
2022-11-10T07:51:30.813Z,13.27
2022-11-10T07:54:02.788Z,14.17
2022-11-10T07:56:32.197Z,16.83
2022-11-10T07:59:01.610Z,13.00
2022-11-10T08:01:31.185Z,13.70
2022-11-10T08:04:00.693Z,14.20
2022-11-10T08:06:34.912Z,15.10
2022-11-10T08:09:08.037Z,14.97
2022-11-10T08:11:37.427Z,14.13
2022-11-10T08:14:06.801Z,13.50
2022-11-10T08:16:36.220Z,15.53
2022-11-10T08:19:05.624Z,11.40
2022-11-10T08:21:35.031Z,14.80
2022-11-10T08:24:04.417Z,17.17
2022-11-10T08:26:36.409Z,16.00
2022-11-10T08:29:05.839Z,14.90
2022-11-10T08:31:35.665Z,15.20
2022-11-10T08:34:05.724Z,10.63
2022-11-10T08:36:35.201Z,15.60
2022-11-10T08:39:04.586Z,14.63
2022-11-10T08:41:36.605Z,15.67
2022-11-10T08:44:10.713Z,17.80
2022-11-10T08:46:40.480Z,15.13
2022-11-10T08:49:09.880Z,15.93
2022-11-10T08:51:39.517Z,23.60
2022-11-10T08:54:09.060Z,13.70
2022-11-10T08:56:41.016Z,16.40
2022-11-10T08:59:10.575Z,15.90
2022-11-10T09:01:39.970Z,15.30
2022-11-10T09:04:09.424Z,16.37
2022-11-10T09:06:38.905Z,16.87
2022-11-10T09:09:08.374Z,15.93
2022-11-10T09:11:37.760Z,14.10
2022-11-10T09:14:09.789Z,13.80
2022-11-10T09:16:39.298Z,15.90
2022-11-10T09:19:08.694Z,14.50
2022-11-10T09:21:38.614Z,16.23
2022-11-10T09:24:09.193Z,15.90
2022-11-10T09:26:38.952Z,11.40
2022-11-10T09:29:10.929Z,14.03
2022-11-10T09:31:40.321Z,14.10
2022-11-10T09:34:09.726Z,14.87
2022-11-10T09:36:40.363Z,14.90
2022-11-10T09:39:10.451Z,14.17
2022-11-10T09:41:42.934Z,14.00
2022-11-10T09:44:20.890Z,14.60
2022-11-10T09:46:53.399Z,13.43
2022-11-10T09:49:30.650Z,14.50
2022-11-10T09:52:00.973Z,13.00
2022-11-10T09:54:37.386Z,14.70
2022-11-10T09:57:09.242Z,13.60
2022-11-10T09:59:41.373Z,13.00
2022-11-10T10:02:19.312Z,9.53
2022-11-10T10:05:01.045Z,14.80
2022-11-10T10:07:34.109Z,10.70
2022-11-10T10:10:06.145Z,11.87
2022-11-10T10:12:49.961Z,13.80
2022-11-10T10:15:26.799Z,12.60
2022-11-10T10:18:06.423Z,13.30
2022-11-10T10:20:41.305Z,12.53
2022-11-10T10:23:17.319Z,13.00
2022-11-10T10:25:47.561Z,12.50
2022-11-10T10:28:25.105Z,14.40
2022-11-10T10:30:58.592Z,11.63
2022-11-10T10:33:28.131Z,13.50
2022-11-10T10:35:57.987Z,12.33
2022-11-10T10:38:34.053Z,13.00
2022-11-10T10:41:05.623Z,12.70
2022-11-10T10:43:35.779Z,12.37
2022-11-10T10:46:12.895Z,11.23
2022-11-10T10:48:42.345Z,11.40
2022-11-10T10:51:11.812Z,9.43
2022-11-10T10:53:50.767Z,10.97
2022-11-10T10:56:22.123Z,11.30
2022-11-10T10:58:55.009Z,9.40
2022-11-10T11:01:32.279Z,12.90
2022-11-10T11:04:02.824Z,8.90
2022-11-10T11:06:33.562Z,11.10
2022-11-10T11:09:07.063Z,10.63
2022-11-10T11:11:38.893Z,13.30
2022-11-10T11:14:27.437Z,10.37
2022-11-10T11:17:00.999Z,9.37
2022-11-10T11:19:33.916Z,10.60
2022-11-10T11:22:13.606Z,11.10
2022-11-10T11:24:45.615Z,10.17
2022-11-10T11:27:19.254Z,9.63
2022-11-10T11:30:00.335Z,9.60
2022-11-10T11:32:52.409Z,8.13
2022-11-10T11:35:28.824Z,10.73
2022-11-10T11:38:05.833Z,9.37
2022-11-10T11:40:44.520Z,9.70
2022-11-10T11:43:27.153Z,9.77
2022-11-10T11:46:00.330Z,8.47
2022-11-10T11:49:03.009Z,9.30
2022-11-10T11:51:39.269Z,9.60
2022-11-10T11:54:19.499Z,9.43
2022-11-10T11:56:51.306Z,9.67
2022-11-10T11:59:41.846Z,8.20
2022-11-10T12:02:53.509Z,10.77
2022-11-10T12:05:43.087Z,7.47
2022-11-10T12:08:18.865Z,6.50
2022-11-10T12:10:56.378Z,8.40
2022-11-10T12:13:45.686Z,7.67
2022-11-10T12:16:18.993Z,9.27
2022-11-10T12:18:51.073Z,8.40
2022-11-10T12:21:35.770Z,8.27
2022-11-10T12:24:21.809Z,8.13
2022-11-10T12:26:55.289Z,8.40
2022-11-10T12:29:30.828Z,9.20
2022-11-10T12:32:06.439Z,8.20
2022-11-10T12:34:40.758Z,7.57
2022-11-10T12:37:17.381Z,9.23
2022-11-10T12:39:53.417Z,5.77
2022-11-10T12:42:28.961Z,8.10
2022-11-10T12:45:02.395Z,7.80
2022-11-10T12:47:34.893Z,6.67
2022-11-10T12:50:21.662Z,5.93
2022-11-10T12:52:56.513Z,6.30
2022-11-10T12:55:32.589Z,7.33
2022-11-10T12:58:02.672Z,6.80
2022-11-10T13:00:34.088Z,8.40
2022-11-10T13:03:03.584Z,6.20
2022-11-10T13:05:40.982Z,7.70
2022-11-10T13:08:27.509Z,7.17
2022-11-10T13:10:59.041Z,4.80
2022-11-10T13:13:29.235Z,7.03
2022-11-10T13:16:00.056Z,6.50
2022-11-10T13:19:02.231Z,6.87
2022-11-10T13:22:01.621Z,4.87
2022-11-10T13:24:34.993Z,6.30
2022-11-10T13:27:05.205Z,6.77
2022-11-10T13:29:37.735Z,5.27
2022-11-10T13:32:25.956Z,6.80
2022-11-10T13:34:55.777Z,6.90
2022-11-10T13:37:49.554Z,5.63
2022-11-10T13:40:45.606Z,6.70
2022-11-10T13:43:30.326Z,4.57
2022-11-10T13:46:06.766Z,5.90
2022-11-10T13:48:52.342Z,5.27
2022-11-10T13:51:30.075Z,6.80
2022-11-10T13:54:11.129Z,6.07
2022-11-10T13:56:57.487Z,5.10
2022-11-10T13:59:28.630Z,5.07
2022-11-10T14:02:33.650Z,6.20
2022-11-10T14:05:03.229Z,4.30
2022-11-10T14:07:36.611Z,5.43
2022-11-10T14:10:07.908Z,5.30
2022-11-10T14:12:45.420Z,4.90
2022-11-10T14:15:18.217Z,4.33
2022-11-10T14:17:51.287Z,4.77
2022-11-10T14:20:25.101Z,4.20
2022-11-10T14:22:55.352Z,4.03
2022-11-10T14:25:27.283Z,4.30
2022-11-10T14:27:59.604Z,4.07
2022-11-10T14:30:30.091Z,5.20
2022-11-10T14:33:02.219Z,4.10
2022-11-10T14:35:34.293Z,3.60
2022-11-10T14:38:05.256Z,4.80
2022-11-10T14:40:34.857Z,4.10
2022-11-10T14:43:06.932Z,4.50
2022-11-10T14:45:38.607Z,3.90
2022-11-10T14:48:19.020Z,4.40
2022-11-10T14:50:48.568Z,4.83
2022-11-10T14:53:22.156Z,3.63
2022-11-10T14:55:55.093Z,4.20
2022-11-10T14:58:29.738Z,3.97
2022-11-10T15:00:59.387Z,3.70
2022-11-10T15:03:36.363Z,4.23
2022-11-10T15:06:07.092Z,3.60
2022-11-10T15:08:36.747Z,3.63
2022-11-10T15:11:06.517Z,3.47
2022-11-10T15:13:42.381Z,3.60
2022-11-10T15:16:26.368Z,3.27
2022-11-10T15:18:57.518Z,3.67
2022-11-10T15:21:34.062Z,3.40
2022-11-10T15:24:05.328Z,4.00
2022-11-10T15:26:37.102Z,4.47
2022-11-10T15:29:09.489Z,3.67
2022-11-10T15:31:38.916Z,3.77
2022-11-10T15:34:08.476Z,3.50
2022-11-10T15:36:39.643Z,3.90
2022-11-10T15:39:20.190Z,2.80
2022-11-10T15:41:50.932Z,4.23
2022-11-10T15:44:28.069Z,4.17
2022-11-10T15:46:58.434Z,3.73
2022-11-10T15:49:29.320Z,3.50
2022-11-10T15:52:00.316Z,3.20
2022-11-10T15:54:33.025Z,3.93
2022-11-10T15:57:02.438Z,3.03
2022-11-10T15:59:34.544Z,3.53
2022-11-10T16:02:04.069Z,3.27
2022-11-10T16:04:33.642Z,2.80
2022-11-10T16:07:03.264Z,3.37
2022-11-10T16:09:32.853Z,3.83
2022-11-10T16:12:02.380Z,3.43
2022-11-10T16:14:34.558Z,3.50
2022-11-10T16:17:04.023Z,2.87
2022-11-10T16:19:33.540Z,2.60
2022-11-10T16:22:03.063Z,2.20
2022-11-10T16:24:32.549Z,2.90
2022-11-10T16:27:02.089Z,3.20
2022-11-10T16:29:34.548Z,2.80
2022-11-10T16:32:04.043Z,2.83
2022-11-10T16:34:33.536Z,3.73
2022-11-10T16:37:03.087Z,3.33
2022-11-10T16:39:32.607Z,3.03
2022-11-10T16:42:03.071Z,4.20
2022-11-10T16:44:38.703Z,2.50
2022-11-10T16:47:17.080Z,2.23
2022-11-10T16:49:49.184Z,2.70
2022-11-10T16:52:19.154Z,3.30
2022-11-10T16:54:48.616Z,2.63
2022-11-10T16:57:20.640Z,3.43
2022-11-10T16:59:52.703Z,3.17
2022-11-10T17:02:28.060Z,3.27
2022-11-10T17:04:57.892Z,2.63
2022-11-10T17:07:29.024Z,2.83
2022-11-10T17:09:58.679Z,2.30
2022-11-10T17:12:28.201Z,2.93
2022-11-10T17:15:00.276Z,3.03
2022-11-10T17:17:29.770Z,3.43
2022-11-10T17:19:59.394Z,3.13
2022-11-10T17:22:32.151Z,2.80
2022-11-10T17:25:01.660Z,3.03
2022-11-10T17:27:36.783Z,4.10
2022-11-10T17:30:14.025Z,3.60
2022-11-10T17:33:04.193Z,2.90
2022-11-10T17:35:36.315Z,2.57
2022-11-10T17:38:08.963Z,1.93
2022-11-10T17:40:38.585Z,2.33
2022-11-10T17:43:07.991Z,3.50
2022-11-10T17:45:40.114Z,2.30
2022-11-10T17:48:10.028Z,2.03
2022-11-10T17:50:40.832Z,2.10
2022-11-10T17:53:17.615Z,1.93
2022-11-10T17:55:48.021Z,2.47
2022-11-10T17:58:17.735Z,2.70
2022-11-10T18:00:50.406Z,2.03
2022-11-10T18:03:21.520Z,2.53
2022-11-10T18:05:51.654Z,2.37
2022-11-10T18:08:21.984Z,3.80
2022-11-10T18:10:53.328Z,3.30
2022-11-10T18:13:23.049Z,2.63
2022-11-10T18:16:00.561Z,2.33
2022-11-10T18:18:30.064Z,3.27
2022-11-10T18:21:00.196Z,2.83
2022-11-10T18:23:29.708Z,2.17
2022-11-10T18:26:05.036Z,3.40
2022-11-10T18:28:34.437Z,2.30
2022-11-10T18:31:11.372Z,2.00
2022-11-10T18:33:41.225Z,2.50
2022-11-10T18:36:11.575Z,4.07
2022-11-10T18:38:41.088Z,2.30
2022-11-10T18:41:23.077Z,2.57
2022-11-10T18:43:52.565Z,2.40
2022-11-10T18:46:24.840Z,2.27
2022-11-10T18:48:54.384Z,2.20
2022-11-10T18:51:23.880Z,2.43
2022-11-10T18:53:53.352Z,3.20
2022-11-10T18:56:22.899Z,3.03
2022-11-10T18:58:56.728Z,3.63
2022-11-10T19:01:29.654Z,2.47
2022-11-10T19:03:59.392Z,2.43
2022-11-10T19:06:28.889Z,2.10
2022-11-10T19:08:58.817Z,2.33
2022-11-10T19:11:28.336Z,2.97
2022-11-10T19:13:58.258Z,3.30
2022-11-10T19:16:30.911Z,3.10
2022-11-10T19:19:00.448Z,3.03
2022-11-10T19:21:30.250Z,2.40
2022-11-10T19:24:00.357Z,2.33
2022-11-10T19:26:32.811Z,2.70
2022-11-10T19:29:02.698Z,1.60
2022-11-10T19:31:34.733Z,2.53
2022-11-10T19:34:04.270Z,2.70
2022-11-10T19:36:33.720Z,2.40
2022-11-10T19:39:03.318Z,3.20
2022-11-10T19:41:34.053Z,3.23
2022-11-10T19:44:03.707Z,3.10
2022-11-10T19:46:37.068Z,2.33
2022-11-10T19:49:06.911Z,2.17
2022-11-10T19:51:36.823Z,1.90
2022-11-10T19:54:06.427Z,1.97
2022-11-10T19:56:36.343Z,2.00
2022-11-10T19:59:06.356Z,2.47
2022-11-10T20:01:38.609Z,2.20
2022-11-10T20:04:08.700Z,3.30
2022-11-10T20:06:38.168Z,2.13
2022-11-10T20:09:07.971Z,2.13
2022-11-10T20:11:37.559Z,2.43
2022-11-10T20:14:07.065Z,1.77
2022-11-10T20:16:39.077Z,2.27
2022-11-10T20:19:08.473Z,1.63
2022-11-10T20:21:38.009Z,1.53
2022-11-10T20:24:07.691Z,2.87
2022-11-10T20:26:37.152Z,2.07
2022-11-10T20:29:06.620Z,2.10
2022-11-10T20:31:37.026Z,1.47
2022-11-10T20:34:09.075Z,2.30
2022-11-10T20:36:38.563Z,2.07
2022-11-10T20:39:08.045Z,2.17
2022-11-10T20:41:37.761Z,1.80
2022-11-10T20:44:07.485Z,2.43
2022-11-10T20:49:29.071Z,2.37
2022-11-10T20:51:59.873Z,2.33
2022-11-10T20:54:29.656Z,2.00
2022-11-10T20:56:59.203Z,1.77
2022-11-10T20:59:28.690Z,2.10
2022-11-10T21:01:58.218Z,3.13
2022-11-10T21:04:30.279Z,2.23
2022-11-10T21:07:00.037Z,3.30
2022-11-10T21:09:29.706Z,1.60
2022-11-10T21:12:11.760Z,2.43
2022-11-10T21:14:41.393Z,3.07
2022-11-10T21:17:10.872Z,2.60
2022-11-10T21:19:43.023Z,14.70
2022-11-10T21:22:12.421Z,2.00
2022-11-10T21:24:41.868Z,21.33
2022-11-10T21:27:12.773Z,5.03
2022-11-10T21:29:42.512Z,7.67
2022-11-10T21:32:12.033Z,11.13
2022-11-10T21:34:44.364Z,9.93
2022-11-10T21:37:13.787Z,4.90
2022-11-10T21:39:44.043Z,5.10
2022-11-10T21:42:13.678Z,10.80
2022-11-10T21:44:43.631Z,5.33
2022-11-10T21:47:13.140Z,8.83
2022-11-10T21:49:45.228Z,11.63
2022-11-10T21:52:14.711Z,3.57
2022-11-10T21:54:44.217Z,2.40
2022-11-10T21:57:13.739Z,9.53
2022-11-10T21:59:43.250Z,5.73
2022-11-10T22:02:14.698Z,3.70
2022-11-10T22:04:46.801Z,7.67
2022-11-10T22:07:28.492Z,4.40
2022-11-10T22:10:11.091Z,4.60
2022-11-10T22:12:53.028Z,4.73
2022-11-10T22:15:35.279Z,6.00
2022-11-10T22:18:17.321Z,8.87
2022-11-10T22:20:49.347Z,10.43
2022-11-10T22:23:18.832Z,3.30
2022-11-10T22:25:48.320Z,4.93
2022-11-10T22:28:17.785Z,8.70
2022-11-10T22:30:47.214Z,5.17
2022-11-10T22:33:34.770Z,3.97
2022-11-10T22:36:08.679Z,4.40
2022-11-10T22:38:39.312Z,6.00
2022-11-10T22:41:21.552Z,4.73
2022-11-10T22:44:03.546Z,6.40
2022-11-10T22:46:34.349Z,3.00
2022-11-10T22:49:04.452Z,5.23
2022-11-10T22:51:37.001Z,3.17
2022-11-10T22:54:07.639Z,3.27
2022-11-10T22:56:37.132Z,3.10
2022-11-10T22:59:07.171Z,3.20
2022-11-10T23:01:37.621Z,2.90
2022-11-10T23:04:07.755Z,3.53
2022-11-10T23:06:39.921Z,3.43
2022-11-10T23:09:09.887Z,2.80
2022-11-10T23:11:39.383Z,2.93
2022-11-10T23:14:08.848Z,2.53
2022-11-10T23:16:38.354Z,3.20
2022-11-10T23:19:07.891Z,2.77
2022-11-10T23:21:39.965Z,2.70
2022-11-10T23:24:10.075Z,4.43
2022-11-10T23:26:39.558Z,3.10
2022-11-10T23:29:08.993Z,3.13
2022-11-10T23:31:38.483Z,2.63
2022-11-10T23:34:08.184Z,2.90
2022-11-10T23:36:40.325Z,2.47
2022-11-10T23:39:09.906Z,3.40
2022-11-10T23:41:39.387Z,3.77
2022-11-10T23:44:08.881Z,2.80
2022-11-10T23:46:38.393Z,3.10
2022-11-10T23:49:07.863Z,2.53
2022-11-10T23:51:39.946Z,3.43
2022-11-10T23:54:09.413Z,3.00
2022-11-10T23:56:38.829Z,3.60
2022-11-10T23:59:08.249Z,3.17
